This is the latest recevied weather packets stored in our database for station/object KM7BEO. If no packets are shown the sender has not sent any weather packets the latest 10 day(s).
| Time | Temp. | Humidity | Pressure | Rain* | Wind** | Luminosity | Snow |
|---|---|---|---|---|---|---|---|
| 1778022920 | 16.67° C | 72% | 1014.8 hPa | 0 mm | - | 526 W/m² | - |
| 1778022619 | 16.11° C | 74% | 1015 hPa | 0 mm | - | 529 W/m² | - |
| 1778022316 | 16.11° C | 74% | 1015 hPa | 0 mm | - | 462 W/m² | - |
| 1778022012 | 16.11° C | 74% | 1014.9 hPa | 0 mm | - | 290 W/m² | - |
| 1778021709 | 16.67° C | 73% | 1014.9 hPa | 0 mm | - | 548 W/m² | - |
| 1778021405 | 16.11° C | 74% | 1015.1 hPa | 0 mm | - | 526 W/m² | - |
| 1778021102 | 15.56° C | 75% | 1015 hPa | 0 mm | - | 385 W/m² | - |
| 1778020799 | 16.11° C | 75% | 1015.1 hPa | 0 mm | - | 258 W/m² | - |
| 1778020496 | 16.11° C | 75% | 1015 hPa | 0 mm | - | 84 W/m² | - |
| 1778020193 | 16.11° C | 76% | 1015.1 hPa | 0 mm | - | 95 W/m² | - |
| 1778019889 | 16.11° C | 76% | 1015.1 hPa | 0 mm | - | 109 W/m² | - |
| 1778019584 | 16.11° C | 76% | 1015.2 hPa | 0 mm | - | 89 W/m² | - |
| 1778019282 | 16.11° C | 77% | 1015.3 hPa | 0 mm | - | 67 W/m² | - |
| 1778018979 | 16.11° C | 75% | 1015.2 hPa | 0 mm | - | 68 W/m² | - |
| 1778018676 | 16.11° C | 76% | 1015.3 hPa | 0 mm | - | 72 W/m² | - |
| 1778018374 | 16.67° C | 74% | 1015.3 hPa | 0 mm | - | 85 W/m² | - |
| 1778018072 | 16.11° C | 76% | 1015.5 hPa | 0 mm | - | 157 W/m² | - |
| 1778017769 | 16.11° C | 74% | 1015.4 hPa | 0 mm | - | 235 W/m² | - |
| 1778017467 | 15.56° C | 77% | 1015.4 hPa | 0 mm | - | 292 W/m² | - |
| 1778017164 | 16.11° C | 75% | 1015.7 hPa | 0 mm | - | 331 W/m² | - |
| 1778016862 | 16.11° C | 75% | 1015.6 hPa | 0 mm | - | 340 W/m² | - |
| 1778016558 | 15.56° C | 77% | 1015.8 hPa | 0 mm | - | 321 W/m² | - |
| 1778016255 | 15.56° C | 78% | 1015.7 hPa | 0 mm | - | 330 W/m² | - |
| 1778015951 | 15° C | 77% | 1015.6 hPa | 0 mm | - | 331 W/m² | - |
| 1778015649 | 15° C | 78% | 1015.6 hPa | 0 mm | - | 344 W/m² | - |
* Rain latest hour (hover to see other rain measurements)
** Current wind speed in m/s (hover to see current wind gust speed)